createdAt,value
2023-03-20T00:02:19.453Z,97233.00
2023-03-20T00:04:46.621Z,97235.00
2023-03-20T00:07:13.754Z,97232.00
2023-03-20T00:09:40.926Z,97234.00
2023-03-20T00:12:09.341Z,97233.00
2023-03-20T00:14:36.451Z,97245.00
2023-03-20T00:17:05.206Z,97246.00
2023-03-20T00:19:32.305Z,97240.00
2023-03-20T00:21:59.402Z,97242.00
2023-03-20T00:24:26.590Z,97238.00
2023-03-20T00:26:53.698Z,97234.00
2023-03-20T00:29:28.033Z,97247.00
2023-03-20T00:31:55.284Z,97245.00
2023-03-20T00:34:27.162Z,97246.00
2023-03-20T00:36:54.369Z,97247.00
2023-03-20T00:39:22.303Z,97254.00
2023-03-20T00:41:49.360Z,97253.00
2023-03-20T00:44:32.413Z,97253.00
2023-03-20T00:47:00.442Z,97254.00
2023-03-20T00:49:28.467Z,97254.00
2023-03-20T00:51:55.602Z,97249.00
2023-03-20T00:54:23.073Z,97252.00
2023-03-20T00:56:53.192Z,97246.00
2023-03-20T00:59:20.939Z,97249.00
2023-03-20T01:01:48.118Z,97249.00
2023-03-20T01:04:16.186Z,97246.00
2023-03-20T01:06:43.640Z,97246.00
2023-03-20T01:09:10.954Z,97253.00
2023-03-20T01:11:38.597Z,97253.00
2023-03-20T01:14:06.200Z,97254.00
2023-03-20T01:16:33.320Z,97253.00
2023-03-20T01:19:00.481Z,97249.00
2023-03-20T01:21:27.589Z,97259.00
2023-03-20T01:23:54.712Z,97260.00
2023-03-20T01:26:23.380Z,97262.00
2023-03-20T01:28:50.797Z,97264.00
2023-03-20T01:31:17.970Z,97261.00
2023-03-20T01:33:45.599Z,97260.00
2023-03-20T01:36:13.078Z,97261.00
2023-03-20T01:38:40.279Z,97263.00
2023-03-20T01:41:07.338Z,97260.00
2023-03-20T01:43:34.638Z,97267.00
2023-03-20T01:46:03.582Z,97267.00
2023-03-20T01:48:36.678Z,97264.00
2023-03-20T01:51:03.824Z,97269.00
2023-03-20T01:53:30.951Z,97267.00
2023-03-20T01:55:58.024Z,97270.00
2023-03-20T01:58:26.628Z,97266.00
2023-03-20T02:00:53.862Z,97264.00
2023-03-20T02:03:21.101Z,97272.00
2023-03-20T02:05:48.178Z,97276.00
2023-03-20T02:08:21.429Z,97276.00
2023-03-20T02:10:48.568Z,97283.00
2023-03-20T02:13:16.066Z,97287.00
2023-03-20T02:15:55.386Z,97285.00
2023-03-20T02:18:22.501Z,97282.00
2023-03-20T02:21:16.176Z,97278.00
2023-03-20T02:24:39.754Z,97283.00
2023-03-20T02:27:38.578Z,97285.00
2023-03-20T02:30:37.405Z,97285.00
2023-03-20T02:33:38.465Z,97281.00
2023-03-20T02:36:16.846Z,97289.00
2023-03-20T02:38:47.376Z,97287.00
2023-03-20T02:41:37.090Z,97291.00
2023-03-20T02:44:24.592Z,97282.00
2023-03-20T02:46:57.068Z,97298.00
2023-03-20T02:49:36.282Z,97293.00
2023-03-20T02:52:05.329Z,97293.00
2023-03-20T02:54:41.991Z,97293.00
2023-03-20T02:57:27.612Z,97291.00
2023-03-20T03:00:04.955Z,97304.00
2023-03-20T03:02:48.947Z,97306.00
2023-03-20T03:05:16.917Z,97300.00
2023-03-20T03:07:45.456Z,97301.00
2023-03-20T03:10:16.007Z,97305.00
2023-03-20T03:12:43.655Z,97301.00
2023-03-20T03:15:15.551Z,97303.00
2023-03-20T03:17:42.977Z,97306.00
2023-03-20T03:20:15.740Z,97307.00
2023-03-20T03:22:43.169Z,97303.00
2023-03-20T03:25:11.133Z,97305.00
2023-03-20T03:27:39.372Z,97306.00
2023-03-20T03:30:08.392Z,97317.00
2023-03-20T03:32:36.317Z,97316.00
2023-03-20T03:35:05.404Z,97309.00
2023-03-20T03:37:40.659Z,97320.00
2023-03-20T03:40:18.821Z,97323.00
2023-03-20T03:42:49.889Z,97317.00
2023-03-20T03:45:18.847Z,97321.00
2023-03-20T03:47:48.696Z,97319.00
2023-03-20T03:50:26.885Z,97319.00
2023-03-20T03:52:54.375Z,97326.00
2023-03-20T03:55:22.915Z,97318.00
2023-03-20T03:57:50.892Z,97310.00
2023-03-20T04:00:19.287Z,97320.00
2023-03-20T04:02:50.536Z,97315.00
2023-03-20T04:05:18.341Z,97318.00
2023-03-20T04:07:46.404Z,97316.00
2023-03-20T04:10:13.855Z,97317.00
2023-03-20T04:12:41.916Z,97323.00
2023-03-20T04:15:09.263Z,97316.00
2023-03-20T04:17:36.570Z,97312.00
2023-03-20T04:20:04.204Z,97315.00
2023-03-20T04:22:31.380Z,97313.00
2023-03-20T04:24:58.498Z,97311.00
2023-03-20T04:27:25.664Z,97313.00
2023-03-20T04:29:52.749Z,97312.00
2023-03-20T04:32:19.944Z,97321.00
2023-03-20T04:34:47.079Z,97318.00
2023-03-20T04:37:14.298Z,97313.00
2023-03-20T04:39:42.966Z,97325.00
2023-03-20T04:42:11.704Z,97326.00
2023-03-20T04:44:38.809Z,97328.00
2023-03-20T04:47:06.504Z,97328.00
2023-03-20T04:49:33.771Z,97335.00
2023-03-20T04:52:00.933Z,97329.00
2023-03-20T04:54:28.032Z,97334.00
2023-03-20T04:56:55.186Z,97327.00
2023-03-20T04:59:22.299Z,97320.00
2023-03-20T05:01:49.370Z,97307.00
2023-03-20T05:04:16.522Z,97298.00
2023-03-20T05:06:43.982Z,97302.00
2023-03-20T05:09:11.171Z,97300.00
2023-03-20T05:11:38.267Z,97310.00
2023-03-20T05:14:06.634Z,97320.00
2023-03-20T05:16:33.736Z,97332.00
2023-03-20T05:19:00.842Z,97335.00
2023-03-20T05:21:27.936Z,97349.00
2023-03-20T05:23:55.031Z,97338.00
2023-03-20T05:26:22.097Z,97332.00
2023-03-20T05:28:49.175Z,97334.00
2023-03-20T05:31:16.302Z,97354.00
2023-03-20T05:33:43.451Z,97347.00
2023-03-20T05:36:10.761Z,97343.00
2023-03-20T05:38:37.903Z,97348.00
2023-03-20T05:41:05.276Z,97350.00
2023-03-20T05:43:32.446Z,97345.00
2023-03-20T05:45:59.605Z,97347.00
2023-03-20T05:48:26.702Z,97352.00
2023-03-20T05:50:53.775Z,97358.00
2023-03-20T05:53:21.292Z,97355.00
2023-03-20T05:55:48.381Z,97344.00
2023-03-20T05:58:15.569Z,97352.00
2023-03-20T06:00:42.870Z,97346.00
2023-03-20T06:03:10.079Z,97347.00
2023-03-20T06:05:37.549Z,97341.00
2023-03-20T06:08:04.977Z,97345.00
2023-03-20T06:10:32.106Z,97347.00
2023-03-20T06:13:01.051Z,97353.00
2023-03-20T06:15:28.690Z,97349.00
2023-03-20T06:17:56.149Z,97354.00
2023-03-20T06:20:23.463Z,97345.00
2023-03-20T06:22:50.926Z,97349.00
2023-03-20T06:25:18.469Z,97351.00
2023-03-20T06:27:48.899Z,97361.00
2023-03-20T06:30:16.192Z,97367.00
2023-03-20T06:32:43.327Z,97365.00
2023-03-20T06:35:10.858Z,97363.00
2023-03-20T06:37:38.137Z,97361.00
2023-03-20T06:40:05.534Z,97361.00
2023-03-20T06:42:32.706Z,97365.00
2023-03-20T06:44:59.843Z,97368.00
2023-03-20T06:47:27.130Z,97377.00
2023-03-20T06:49:54.224Z,97377.00
2023-03-20T06:52:22.547Z,97381.00
2023-03-20T06:54:51.001Z,97378.00
2023-03-20T06:57:18.185Z,97393.00
2023-03-20T06:59:45.439Z,97390.00
2023-03-20T07:02:12.662Z,97395.00
2023-03-20T07:04:39.902Z,97390.00
2023-03-20T07:07:07.055Z,97397.00
2023-03-20T07:09:34.166Z,97389.00
2023-03-20T07:12:01.239Z,97393.00
2023-03-20T07:14:28.316Z,97403.00
2023-03-20T07:16:56.385Z,97404.00
2023-03-20T07:19:23.529Z,97411.00
2023-03-20T07:21:50.921Z,97407.00
2023-03-20T07:24:18.039Z,97412.00
2023-03-20T07:26:45.824Z,97424.00
2023-03-20T07:29:13.840Z,97418.00
2023-03-20T07:31:41.014Z,97430.00
2023-03-20T07:34:08.180Z,97431.00
2023-03-20T07:36:35.423Z,97427.00
2023-03-20T07:39:02.541Z,97427.00
2023-03-20T07:41:29.634Z,97430.00
2023-03-20T07:43:56.723Z,97428.00
2023-03-20T07:46:23.906Z,97430.00
2023-03-20T07:48:51.418Z,97427.00
2023-03-20T07:51:18.504Z,97427.00
2023-03-20T07:53:45.615Z,97410.00
2023-03-20T07:56:12.962Z,97413.00
2023-03-20T07:58:40.288Z,97419.00
2023-03-20T08:01:07.374Z,97423.00
2023-03-20T08:03:34.539Z,97406.00
2023-03-20T08:06:01.852Z,97418.00
2023-03-20T08:08:29.092Z,97418.00
2023-03-20T08:10:56.425Z,97416.00
2023-03-20T08:13:23.543Z,97421.00
2023-03-20T08:15:51.687Z,97419.00
2023-03-20T08:18:20.170Z,97422.00
2023-03-20T08:20:47.502Z,97407.00
2023-03-20T08:23:14.628Z,97397.00
2023-03-20T08:25:41.979Z,97410.00
2023-03-20T08:28:09.090Z,97392.00
2023-03-20T08:30:36.960Z,97403.00
2023-03-20T08:33:04.125Z,97409.00
2023-03-20T08:35:33.489Z,97408.00
2023-03-20T08:38:01.243Z,97406.00
2023-03-20T08:40:28.353Z,97404.00
2023-03-20T08:42:55.543Z,97402.00
2023-03-20T08:45:25.834Z,97406.00
2023-03-20T08:47:53.150Z,97415.00
2023-03-20T08:50:20.308Z,97412.00
2023-03-20T08:52:47.441Z,97413.00
2023-03-20T08:55:14.806Z,97412.00
2023-03-20T08:57:42.296Z,97407.00
2023-03-20T09:00:10.413Z,97413.00
2023-03-20T09:02:37.636Z,97415.00
2023-03-20T09:05:05.055Z,97420.00
2023-03-20T09:07:32.156Z,97406.00
2023-03-20T09:10:04.289Z,97416.00
2023-03-20T09:12:44.595Z,97416.00
2023-03-20T09:15:32.601Z,97432.00
2023-03-20T09:18:09.338Z,97429.00
2023-03-20T09:20:43.498Z,97427.00
2023-03-20T09:23:30.002Z,97423.00
2023-03-20T09:26:09.821Z,97422.00
2023-03-20T09:28:42.283Z,97423.00
2023-03-20T09:31:19.951Z,97430.00
2023-03-20T09:33:47.080Z,97432.00
2023-03-20T09:36:17.740Z,97437.00
2023-03-20T09:38:44.902Z,97431.00
2023-03-20T09:41:14.109Z,97427.00
2023-03-20T09:43:50.354Z,97417.00
2023-03-20T09:46:26.987Z,97423.00
2023-03-20T09:48:57.701Z,97427.00
2023-03-20T09:51:43.608Z,97431.00
2023-03-20T09:54:13.347Z,97424.00
2023-03-20T09:56:40.708Z,97425.00
2023-03-20T09:59:07.859Z,97429.00
2023-03-20T10:01:45.283Z,97434.00
2023-03-20T10:04:12.659Z,97427.00
2023-03-20T10:06:39.942Z,97421.00
2023-03-20T10:09:12.090Z,97421.00
2023-03-20T10:11:39.294Z,97420.00
2023-03-20T10:14:06.416Z,97433.00
2023-03-20T10:17:05.774Z,97433.00
2023-03-20T10:19:36.991Z,97437.00
2023-03-20T10:22:29.102Z,97432.00
2023-03-20T10:24:58.359Z,97428.00
2023-03-20T10:27:38.115Z,97436.00
2023-03-20T10:30:24.068Z,97431.00
2023-03-20T10:33:03.690Z,97431.00
2023-03-20T10:35:54.239Z,97434.00
2023-03-20T10:38:37.146Z,97433.00
2023-03-20T10:41:04.382Z,97428.00
2023-03-20T10:43:32.934Z,97436.00
2023-03-20T10:46:08.203Z,97439.00
2023-03-20T10:48:39.299Z,97439.00
2023-03-20T10:51:06.961Z,97436.00
2023-03-20T10:53:46.556Z,97432.00
2023-03-20T10:56:17.071Z,97423.00
2023-03-20T10:58:45.105Z,97417.00
2023-03-20T11:01:12.279Z,97422.00
2023-03-20T11:03:41.215Z,97418.00
2023-03-20T11:06:18.725Z,97420.00
2023-03-20T11:08:47.756Z,97426.00
2023-03-20T11:11:14.886Z,97425.00
2023-03-20T11:13:42.467Z,97430.00
2023-03-20T11:16:09.677Z,97426.00
2023-03-20T11:18:36.981Z,97424.00
2023-03-20T11:21:04.230Z,97429.00
2023-03-20T11:23:34.382Z,97426.00
2023-03-20T11:26:02.633Z,97426.00
2023-03-20T11:28:36.207Z,97424.00
2023-03-20T11:31:16.852Z,97423.00
2023-03-20T11:33:44.881Z,97422.00
2023-03-20T11:36:22.614Z,97407.00
2023-03-20T11:38:50.144Z,97418.00
2023-03-20T11:41:18.475Z,97414.00
2023-03-20T11:44:02.990Z,97421.00
2023-03-20T11:46:46.413Z,97411.00
2023-03-20T11:49:47.222Z,97406.00
2023-03-20T11:52:22.511Z,97411.00
2023-03-20T11:54:53.697Z,97406.00
2023-03-20T11:57:37.883Z,97406.00
2023-03-20T12:00:10.924Z,97398.00
2023-03-20T12:02:41.714Z,97392.00
2023-03-20T12:05:54.690Z,97392.00
2023-03-20T12:08:24.058Z,97388.00
2023-03-20T12:10:53.677Z,97391.00
2023-03-20T12:13:25.048Z,97392.00
2023-03-20T12:15:54.243Z,97392.00
2023-03-20T12:18:30.542Z,97392.00
2023-03-20T12:21:10.063Z,97394.00
2023-03-20T12:23:38.981Z,97383.00
2023-03-20T12:26:07.503Z,97383.00
2023-03-20T12:28:46.851Z,97381.00
2023-03-20T12:31:29.390Z,97374.00
2023-03-20T12:34:10.392Z,97363.00
2023-03-20T12:36:39.373Z,97357.00
2023-03-20T12:39:09.583Z,97356.00
2023-03-20T12:41:39.020Z,97352.00
2023-03-20T12:44:24.758Z,97366.00
2023-03-20T12:47:04.088Z,97360.00
2023-03-20T12:49:37.357Z,97358.00
2023-03-20T12:52:04.405Z,97345.00
2023-03-20T12:54:31.506Z,97351.00
2023-03-20T12:57:34.234Z,97350.00
2023-03-20T13:00:10.497Z,97349.00
2023-03-20T13:02:41.396Z,97346.00
2023-03-20T13:05:14.637Z,97339.00
2023-03-20T13:07:44.804Z,97335.00
2023-03-20T13:10:12.017Z,97330.00
2023-03-20T13:12:42.163Z,97325.00
2023-03-20T13:15:14.586Z,97323.00
2023-03-20T13:17:52.742Z,97320.00
2023-03-20T13:20:21.667Z,97328.00
2023-03-20T13:22:53.912Z,97323.00
2023-03-20T13:25:28.349Z,97324.00
2023-03-20T13:28:01.206Z,97321.00
2023-03-20T13:30:40.927Z,97332.00
2023-03-20T13:33:24.661Z,97326.00
2023-03-20T13:35:53.721Z,97323.00
2023-03-20T13:38:24.501Z,97324.00
2023-03-20T13:40:53.505Z,97317.00
2023-03-20T13:43:20.594Z,97318.00
2023-03-20T13:45:47.819Z,97316.00
2023-03-20T13:48:29.300Z,97322.00
2023-03-20T13:51:06.684Z,97310.00
2023-03-20T13:53:54.318Z,97308.00
2023-03-20T13:56:40.002Z,97313.00
2023-03-20T13:59:12.976Z,97308.00
2023-03-20T14:01:51.978Z,97309.00
2023-03-20T14:04:20.458Z,97298.00
2023-03-20T14:06:49.366Z,97307.00
2023-03-20T14:09:30.640Z,97301.00
2023-03-20T14:12:10.884Z,97302.00
2023-03-20T14:14:41.573Z,97301.00
2023-03-20T14:17:12.105Z,97297.00
2023-03-20T14:19:39.371Z,97300.00
2023-03-20T14:22:06.788Z,97300.00
2023-03-20T14:24:35.571Z,97300.00
2023-03-20T14:27:02.682Z,97294.00
2023-03-20T14:29:29.812Z,97300.00
2023-03-20T14:32:04.445Z,97303.00
2023-03-20T14:34:44.654Z,97301.00
2023-03-20T14:37:31.231Z,97294.00
2023-03-20T14:40:10.669Z,97299.00
2023-03-20T14:42:54.616Z,97296.00
2023-03-20T14:45:31.942Z,97298.00
2023-03-20T14:47:59.083Z,97290.00
2023-03-20T14:50:31.646Z,97288.00
2023-03-20T14:52:58.708Z,97284.00
2023-03-20T14:55:27.949Z,97278.00
2023-03-20T14:57:57.162Z,97278.00
2023-03-20T15:00:25.361Z,97284.00
2023-03-20T15:02:53.300Z,97289.00
2023-03-20T15:05:30.438Z,97290.00
2023-03-20T15:07:58.150Z,97282.00
2023-03-20T15:10:25.413Z,97284.00
2023-03-20T15:12:52.518Z,97278.00
2023-03-20T15:15:24.456Z,97280.00
2023-03-20T15:17:51.574Z,97279.00
2023-03-20T15:20:19.137Z,97285.00
2023-03-20T15:22:49.007Z,97285.00
2023-03-20T15:25:17.253Z,97286.00
2023-03-20T15:27:44.429Z,97278.00
2023-03-20T15:30:14.773Z,97283.00
2023-03-20T15:32:43.502Z,97276.00
2023-03-20T15:35:15.678Z,97282.00
2023-03-20T15:37:43.513Z,97276.00
2023-03-20T15:40:11.907Z,97280.00
2023-03-20T15:42:39.049Z,97277.00
2023-03-20T15:45:22.673Z,97268.00
2023-03-20T15:47:49.836Z,97278.00
2023-03-20T15:50:17.236Z,97279.00
2023-03-20T15:52:52.712Z,97271.00
2023-03-20T15:55:20.792Z,97269.00
2023-03-20T15:57:50.159Z,97258.00
2023-03-20T16:00:20.217Z,97261.00
2023-03-20T16:02:48.657Z,97258.00
2023-03-20T16:05:16.388Z,97256.00
2023-03-20T16:07:43.658Z,97262.00
2023-03-20T16:10:18.022Z,97260.00
2023-03-20T16:12:49.105Z,97259.00
2023-03-20T16:15:16.926Z,97266.00
2023-03-20T16:17:44.270Z,97262.00
2023-03-20T16:20:15.188Z,97247.00
2023-03-20T16:22:42.347Z,97238.00
2023-03-20T16:25:12.912Z,97244.00
2023-03-20T16:27:40.082Z,97236.00
2023-03-20T16:30:08.876Z,97239.00
2023-03-20T16:32:37.803Z,97245.00
2023-03-20T16:35:08.051Z,97236.00
2023-03-20T16:37:42.037Z,97227.00
2023-03-20T16:40:15.354Z,97236.00
2023-03-20T16:42:42.662Z,97236.00
2023-03-20T16:45:27.057Z,97237.00
2023-03-20T16:48:04.385Z,97235.00
2023-03-20T16:50:35.109Z,97245.00
2023-03-20T16:53:02.375Z,97239.00
2023-03-20T16:55:31.466Z,97237.00
2023-03-20T16:57:59.538Z,97233.00
2023-03-20T17:00:28.501Z,97238.00
2023-03-20T17:03:06.640Z,97225.00
2023-03-20T17:05:36.814Z,97219.00
2023-03-20T17:08:04.840Z,97226.00
2023-03-20T17:10:32.107Z,97225.00
2023-03-20T17:12:59.698Z,97229.00
2023-03-20T17:15:26.918Z,97228.00
2023-03-20T17:17:54.002Z,97222.00
2023-03-20T17:20:22.888Z,97215.00
2023-03-20T17:22:50.090Z,97222.00
2023-03-20T17:25:17.709Z,97225.00
2023-03-20T17:27:44.929Z,97232.00
2023-03-20T17:30:19.627Z,97227.00
2023-03-20T17:32:46.828Z,97228.00
2023-03-20T17:35:14.243Z,97226.00
2023-03-20T17:37:42.669Z,97231.00
2023-03-20T17:40:17.548Z,97234.00
2023-03-20T17:42:44.649Z,97232.00
2023-03-20T17:45:15.402Z,97238.00
2023-03-20T17:47:43.154Z,97244.00
2023-03-20T17:50:20.287Z,97256.00
2023-03-20T17:52:47.448Z,97248.00
2023-03-20T17:55:15.683Z,97248.00
2023-03-20T17:57:43.338Z,97241.00
2023-03-20T18:00:15.130Z,97249.00
2023-03-20T18:02:42.230Z,97253.00
2023-03-20T18:05:09.729Z,97254.00
2023-03-20T18:07:36.876Z,97247.00
2023-03-20T18:10:04.251Z,97261.00
2023-03-20T18:12:34.344Z,97268.00
2023-03-20T18:15:01.513Z,97274.00
2023-03-20T18:17:28.599Z,97269.00
2023-03-20T18:19:55.840Z,97268.00
2023-03-20T18:22:23.016Z,97270.00
2023-03-20T18:24:53.753Z,97265.00
2023-03-20T18:27:21.757Z,97267.00
2023-03-20T18:29:48.871Z,97279.00
2023-03-20T18:32:19.620Z,97271.00
2023-03-20T18:34:48.869Z,97264.00
2023-03-20T18:37:16.103Z,97274.00
2023-03-20T18:39:43.674Z,97277.00
2023-03-20T18:42:10.798Z,97274.00
2023-03-20T18:44:37.928Z,97273.00
2023-03-20T18:47:05.176Z,97264.00
2023-03-20T18:49:39.290Z,97268.00
2023-03-20T18:52:06.864Z,97268.00
2023-03-20T18:54:33.971Z,97267.00
2023-03-20T18:57:01.116Z,97263.00
2023-03-20T18:59:28.258Z,97260.00
2023-03-20T19:01:55.558Z,97263.00
2023-03-20T19:04:27.068Z,97254.00
2023-03-20T19:06:54.237Z,97260.00
2023-03-20T19:09:21.611Z,97260.00
2023-03-20T19:11:49.193Z,97266.00
2023-03-20T19:14:16.365Z,97263.00
2023-03-20T19:16:43.445Z,97259.00
2023-03-20T19:19:10.962Z,97263.00
2023-03-20T19:21:38.323Z,97264.00
2023-03-20T19:24:05.993Z,97268.00
2023-03-20T19:26:34.289Z,97268.00
2023-03-20T19:29:02.891Z,97276.00
2023-03-20T19:31:30.312Z,97270.00
2023-03-20T19:33:57.581Z,97271.00
2023-03-20T19:36:32.048Z,97267.00
2023-03-20T19:38:59.990Z,97269.00
2023-03-20T19:41:28.646Z,97268.00
2023-03-20T19:43:56.518Z,97264.00
2023-03-20T19:46:41.536Z,97262.00
2023-03-20T19:49:17.362Z,97256.00
2023-03-20T19:51:45.208Z,97248.00
2023-03-20T19:54:12.301Z,97245.00
2023-03-20T19:56:39.947Z,97244.00
2023-03-20T19:59:07.131Z,97242.00
2023-03-20T20:01:34.350Z,97240.00
2023-03-20T20:04:01.504Z,97241.00
2023-03-20T20:06:32.166Z,97244.00
2023-03-20T20:09:00.963Z,97246.00
2023-03-20T20:11:28.554Z,97237.00
2023-03-20T20:14:14.604Z,97240.00
2023-03-20T20:16:45.905Z,97238.00
2023-03-20T20:19:13.130Z,97234.00
2023-03-20T20:24:27.297Z,97238.00
2023-03-20T20:27:03.427Z,97233.00
2023-03-20T20:29:40.161Z,97238.00
2023-03-20T20:32:07.371Z,97232.00
2023-03-20T20:38:21.491Z,97241.00
2023-03-20T20:40:12.541Z,97234.00
2023-03-20T20:42:39.699Z,97242.00
2023-03-20T20:45:07.606Z,97240.00
2023-03-20T20:47:34.818Z,97237.00
2023-03-20T20:50:03.956Z,97242.00
2023-03-20T20:52:31.208Z,97243.00
2023-03-20T20:55:04.850Z,97243.00
2023-03-20T20:57:38.180Z,97243.00
2023-03-20T21:00:05.636Z,97243.00
2023-03-20T21:02:34.160Z,97245.00
2023-03-20T21:05:01.310Z,97243.00
2023-03-20T21:07:28.418Z,97240.00
2023-03-20T21:09:55.539Z,97247.00
2023-03-20T21:12:33.793Z,97240.00
2023-03-20T21:15:03.917Z,97241.00
2023-03-20T21:17:31.087Z,97236.00
2023-03-20T21:19:58.170Z,97237.00
2023-03-20T21:22:25.299Z,97241.00
2023-03-20T21:25:00.696Z,97236.00
2023-03-20T21:27:34.389Z,97256.00
2023-03-20T21:30:03.361Z,97247.00
2023-03-20T21:32:33.087Z,97247.00
2023-03-20T21:35:02.242Z,97244.00
2023-03-20T21:40:16.476Z,97228.00
2023-03-20T21:42:43.571Z,97227.00
2023-03-20T21:46:08.414Z,97222.00
2023-03-20T21:48:33.424Z,97229.00
2023-03-20T21:54:29.607Z,97225.00
2023-03-20T22:02:09.838Z,97222.00
2023-03-20T22:05:24.732Z,97223.00
2023-03-20T22:11:09.604Z,97229.00
2023-03-20T22:19:29.429Z,97228.00
2023-03-20T22:24:55.026Z,97238.00
2023-03-20T22:27:43.604Z,97236.00
2023-03-20T22:30:41.489Z,97232.00
2023-03-20T22:36:10.335Z,97230.00
2023-03-20T22:44:34.058Z,97235.00
2023-03-20T22:46:44.885Z,97226.00
2023-03-20T22:49:13.220Z,97232.00
2023-03-20T22:51:52.228Z,97225.00
2023-03-20T22:54:27.589Z,97222.00
2023-03-20T22:56:55.442Z,97223.00
2023-03-20T22:59:22.568Z,97213.00
2023-03-20T23:01:49.682Z,97215.00
2023-03-20T23:04:16.824Z,97215.00
2023-03-20T23:06:44.081Z,97209.00
2023-03-20T23:09:15.165Z,97214.00
2023-03-20T23:11:42.910Z,97216.00
2023-03-20T23:14:20.567Z,97205.00
2023-03-20T23:16:48.697Z,97198.00
2023-03-20T23:19:16.354Z,97194.00
2023-03-20T23:21:43.449Z,97194.00
2023-03-20T23:24:10.544Z,97189.00
2023-03-20T23:26:37.676Z,97190.00
2023-03-20T23:29:05.684Z,97188.00
2023-03-20T23:31:32.900Z,97191.00
2023-03-20T23:34:00.207Z,97184.00
2023-03-20T23:36:42.706Z,97185.00
2023-03-20T23:39:11.028Z,97190.00
2023-03-20T23:44:25.265Z,97168.00
2023-03-20T23:46:53.037Z,97176.00
2023-03-20T23:49:20.375Z,97177.00
2023-03-20T23:51:47.502Z,97182.00
2023-03-20T23:54:14.601Z,97179.00
2023-03-20T23:56:41.734Z,97170.00
2023-03-20T23:59:20.605Z,97179.00
